createdAt,value
2018-12-01T06:06:07.251Z,63.13
2018-12-01T06:11:38.149Z,47.97
2018-12-01T06:45:54.945Z,49.80
2018-12-01T08:34:24.166Z,51.17
2018-12-01T09:05:28.563Z,35.13
2018-12-01T10:52:27.248Z,36.47
2018-12-01T10:57:59.553Z,22.87
2018-12-01T11:03:29.994Z,26.53
2018-12-01T13:21:14.399Z,11.80
2018-12-01T13:49:04.008Z,16.77
2018-12-01T13:54:10.505Z,15.33
2018-12-01T13:59:20.037Z,14.30
2018-12-01T14:04:26.066Z,16.90
2018-12-01T14:09:32.228Z,16.50
2018-12-01T14:14:37.008Z,17.57
2018-12-01T14:19:42.009Z,17.63
2018-12-01T14:24:46.822Z,17.20
2018-12-01T14:30:27.132Z,23.00
2018-12-01T14:35:43.073Z,15.30
2018-12-01T14:40:54.807Z,12.93
2018-12-01T14:46:07.315Z,18.17
2018-12-01T14:51:20.264Z,10.93
2018-12-01T15:02:15.987Z,16.90
2018-12-01T15:07:25.270Z,17.57
2018-12-01T15:12:47.097Z,18.30
2018-12-01T15:24:26.835Z,17.83
2018-12-01T15:35:58.269Z,22.97
2018-12-01T15:41:13.757Z,23.33
2018-12-01T15:46:23.542Z,23.40
2018-12-01T15:51:33.761Z,30.50
2018-12-01T15:56:43.039Z,21.60
2018-12-01T16:01:49.021Z,26.57
2018-12-01T16:06:53.966Z,22.13
2018-12-01T16:12:05.791Z,21.13
2018-12-01T16:17:34.431Z,16.70
2018-12-01T16:22:47.905Z,27.17
2018-12-01T16:28:04.807Z,59.97
2018-12-01T16:33:26.111Z,68.60
2018-12-01T16:38:45.462Z,82.80
2018-12-01T16:43:54.472Z,38.37
2018-12-01T16:49:08.272Z,37.13
2018-12-01T16:54:14.125Z,27.00
2018-12-01T17:40:06.106Z,18.87
2018-12-01T17:45:11.343Z,15.97
2018-12-01T17:50:16.990Z,21.20
2018-12-01T17:55:22.077Z,17.93
2018-12-01T18:00:28.675Z,20.23
2018-12-01T18:05:40.322Z,27.50
2018-12-01T18:10:46.150Z,19.53
2018-12-01T18:15:51.008Z,22.67
2018-12-01T18:20:55.935Z,21.77
2018-12-01T18:26:00.745Z,27.73
2018-12-01T18:31:39.184Z,25.77
2018-12-01T18:36:44.014Z,23.97
2018-12-01T18:41:48.649Z,18.03
2018-12-01T18:46:54.061Z,26.13
2018-12-01T18:52:00.245Z,31.37
2018-12-01T18:57:04.915Z,30.37
2018-12-01T19:02:09.650Z,43.80
2018-12-01T19:07:16.343Z,38.23
2018-12-01T19:12:22.156Z,30.03
2018-12-01T19:17:27.874Z,35.43
2018-12-01T19:22:32.736Z,28.77
2018-12-01T19:27:37.600Z,32.23
2018-12-01T19:32:43.496Z,35.57
2018-12-01T19:37:52.179Z,36.80
2018-12-01T19:42:56.955Z,38.40
2018-12-01T19:48:01.446Z,24.93
2018-12-01T19:53:07.389Z,25.80
2018-12-01T19:58:20.022Z,34.30
2018-12-01T20:03:26.981Z,25.90
2018-12-01T20:08:31.735Z,28.23
2018-12-01T20:13:43.516Z,31.33
2018-12-01T20:18:48.132Z,55.40
2018-12-01T20:23:52.810Z,41.30
2018-12-01T20:28:57.398Z,45.10
2018-12-01T20:34:04.099Z,49.30
2018-12-01T20:39:14.346Z,48.33
2018-12-01T20:44:18.894Z,52.47
2018-12-01T20:49:23.452Z,64.43
2018-12-01T20:54:44.672Z,51.83
2018-12-01T20:59:49.280Z,33.27
2018-12-01T21:04:53.783Z,48.47
2018-12-01T21:09:58.363Z,31.33
2018-12-01T21:15:02.849Z,29.07
2018-12-01T21:20:11.771Z,41.83
2018-12-01T21:25:18.722Z,38.73
2018-12-01T21:30:24.618Z,40.77
2018-12-01T21:35:29.111Z,36.60
2018-12-01T21:40:33.588Z,36.17
2018-12-01T21:45:38.069Z,34.97
2018-12-01T21:50:43.451Z,45.07
2018-12-01T21:55:47.911Z,61.97
2018-12-01T22:00:55.394Z,53.27
2018-12-01T22:06:01.913Z,66.53
2018-12-01T22:11:07.440Z,59.10
2018-12-01T22:16:12.408Z,59.87
2018-12-01T22:21:16.963Z,61.93
2018-12-01T22:26:21.493Z,47.23
2018-12-01T22:31:25.988Z,40.33
2018-12-01T22:36:30.500Z,41.80
2018-12-01T22:41:35.069Z,37.50
2018-12-01T22:46:39.636Z,33.67
2018-12-01T22:51:45.227Z,25.50
2018-12-01T22:56:49.700Z,33.27
2018-12-01T23:01:54.279Z,33.63
2018-12-01T23:06:58.776Z,37.13
2018-12-01T23:12:03.251Z,33.23
2018-12-01T23:17:07.703Z,32.37
2018-12-01T23:22:12.193Z,25.97
2018-12-01T23:27:16.820Z,22.67
2018-12-01T23:32:21.272Z,24.83
2018-12-01T23:37:25.709Z,21.30
2018-12-01T23:42:30.173Z,19.47
2018-12-01T23:47:34.622Z,19.13
2018-12-01T23:52:39.111Z,14.53
2018-12-01T23:57:43.721Z,16.30
